sensor_id;sensor_type;location;lat;lon;timestamp;temperature;humidity
51615;DHT22;37695;52.960;6.188;2022-09-01T00:00:48;13.50;99.90
51615;DHT22;37695;52.960;6.188;2022-09-01T00:03:16;13.50;99.90
51615;DHT22;37695;52.960;6.188;2022-09-01T00:05:43;13.50;99.90
51615;DHT22;37695;52.960;6.188;2022-09-01T00:08:11;13.50;99.90
51615;DHT22;37695;52.960;6.188;2022-09-01T00:10:37;13.50;99.90
51615;DHT22;37695;52.960;6.188;2022-09-01T00:13:03;13.60;99.90
51615;DHT22;37695;52.960;6.188;2022-09-01T00:15:34;13.50;99.90
51615;DHT22;37695;52.960;6.188;2022-09-01T00:18:00;13.60;99.90
51615;DHT22;37695;52.960;6.188;2022-09-01T00:20:26;13.50;99.90
51615;DHT22;37695;52.960;6.188;2022-09-01T00:22:52;13.60;99.90
51615;DHT22;37695;52.960;6.188;2022-09-01T00:25:19;13.50;99.90
51615;DHT22;37695;52.960;6.188;2022-09-01T00:27:46;13.50;99.90
51615;DHT22;37695;52.960;6.188;2022-09-01T00:30:13;13.50;99.90
51615;DHT22;37695;52.960;6.188;2022-09-01T00:32:38;13.50;99.90
51615;DHT22;37695;52.960;6.188;2022-09-01T00:35:04;13.60;99.90
51615;DHT22;37695;52.960;6.188;2022-09-01T00:37:30;13.50;99.90
51615;DHT22;37695;52.960;6.188;2022-09-01T00:39:56;13.60;99.90
51615;DHT22;37695;52.960;6.188;2022-09-01T00:42:22;13.70;99.90
51615;DHT22;37695;52.960;6.188;2022-09-01T00:44:47;13.60;99.90
51615;DHT22;37695;52.960;6.188;2022-09-01T00:47:13;13.50;99.90
51615;DHT22;37695;52.960;6.188;2022-09-01T00:49:44;13.50;99.90
51615;DHT22;37695;52.960;6.188;2022-09-01T00:52:20;13.50;99.90
51615;DHT22;37695;52.960;6.188;2022-09-01T00:54:52;13.50;99.90
51615;DHT22;37695;52.960;6.188;2022-09-01T00:57:18;13.50;99.90
51615;DHT22;37695;52.960;6.188;2022-09-01T00:59:52;13.50;99.90
51615;DHT22;37695;52.960;6.188;2022-09-01T01:02:18;13.50;99.90
51615;DHT22;37695;52.960;6.188;2022-09-01T01:04:44;13.80;99.90
51615;DHT22;37695;52.960;6.188;2022-09-01T01:07:11;13.40;99.90
51615;DHT22;37695;52.960;6.188;2022-09-01T01:09:39;13.40;99.90
51615;DHT22;37695;52.960;6.188;2022-09-01T01:12:07;13.40;99.90
51615;DHT22;37695;52.960;6.188;2022-09-01T01:14:36;13.40;99.90
51615;DHT22;37695;52.960;6.188;2022-09-01T01:17:04;13.40;99.90
51615;DHT22;37695;52.960;6.188;2022-09-01T01:19:43;13.40;99.90
51615;DHT22;37695;52.960;6.188;2022-09-01T01:22:48;13.40;99.90
51615;DHT22;37695;52.960;6.188;2022-09-01T01:28:06;13.40;99.90
51615;DHT22;37695;52.960;6.188;2022-09-01T01:30:33;13.40;99.90
51615;DHT22;37695;52.960;6.188;2022-09-01T01:32:59;13.40;99.90
51615;DHT22;37695;52.960;6.188;2022-09-01T01:35:26;13.40;99.90
51615;DHT22;37695;52.960;6.188;2022-09-01T01:37:52;13.30;99.90
51615;DHT22;37695;52.960;6.188;2022-09-01T01:40:20;13.30;99.90
51615;DHT22;37695;52.960;6.188;2022-09-01T01:42:49;13.30;99.90
51615;DHT22;37695;52.960;6.188;2022-09-01T01:45:18;13.30;99.90
51615;DHT22;37695;52.960;6.188;2022-09-01T01:47:47;13.20;99.90
51615;DHT22;37695;52.960;6.188;2022-09-01T01:50:16;13.20;99.90
51615;DHT22;37695;52.960;6.188;2022-09-01T01:52:41;13.20;99.90
51615;DHT22;37695;52.960;6.188;2022-09-01T01:55:08;13.20;99.90
51615;DHT22;37695;52.960;6.188;2022-09-01T01:57:39;13.20;99.90
51615;DHT22;37695;52.960;6.188;2022-09-01T02:00:13;13.20;99.90
51615;DHT22;37695;52.960;6.188;2022-09-01T02:02:44;13.10;99.90
51615;DHT22;37695;52.960;6.188;2022-09-01T02:05:29;13.10;99.90
51615;DHT22;37695;52.960;6.188;2022-09-01T02:08:06;13.10;99.90
51615;DHT22;37695;52.960;6.188;2022-09-01T02:10:37;13.10;99.90
51615;DHT22;37695;52.960;6.188;2022-09-01T02:13:04;13.10;99.90
51615;DHT22;37695;52.960;6.188;2022-09-01T02:15:34;13.10;99.90
51615;DHT22;37695;52.960;6.188;2022-09-01T02:18:04;13.00;99.90
51615;DHT22;37695;52.960;6.188;2022-09-01T02:20:30;13.10;99.90
51615;DHT22;37695;52.960;6.188;2022-09-01T02:22:57;13.00;99.90
51615;DHT22;37695;52.960;6.188;2022-09-01T02:25:36;13.00;99.90
51615;DHT22;37695;52.960;6.188;2022-09-01T02:28:03;13.00;99.90
51615;DHT22;37695;52.960;6.188;2022-09-01T02:30:31;13.00;99.90
51615;DHT22;37695;52.960;6.188;2022-09-01T02:33:01;13.00;99.90
51615;DHT22;37695;52.960;6.188;2022-09-01T02:35:26;13.00;99.90
51615;DHT22;37695;52.960;6.188;2022-09-01T02:38:03;13.00;99.90
51615;DHT22;37695;52.960;6.188;2022-09-01T02:40:30;12.90;99.90
51615;DHT22;37695;52.960;6.188;2022-09-01T02:42:56;12.90;99.90
51615;DHT22;37695;52.960;6.188;2022-09-01T02:45:24;12.90;99.90
51615;DHT22;37695;52.960;6.188;2022-09-01T02:47:49;12.90;99.90
51615;DHT22;37695;52.960;6.188;2022-09-01T02:50:16;13.00;99.90
51615;DHT22;37695;52.960;6.188;2022-09-01T02:52:46;12.80;99.90
51615;DHT22;37695;52.960;6.188;2022-09-01T02:55:13;12.90;99.90
51615;DHT22;37695;52.960;6.188;2022-09-01T02:57:39;12.80;99.90
51615;DHT22;37695;52.960;6.188;2022-09-01T03:00:07;12.90;99.90
51615;DHT22;37695;52.960;6.188;2022-09-01T03:02:49;12.80;99.90
51615;DHT22;37695;52.960;6.188;2022-09-01T03:05:18;12.90;99.90
51615;DHT22;37695;52.960;6.188;2022-09-01T03:07:51;12.90;99.90
51615;DHT22;37695;52.960;6.188;2022-09-01T03:10:31;12.90;99.90
51615;DHT22;37695;52.960;6.188;2022-09-01T03:13:02;12.90;99.90
51615;DHT22;37695;52.960;6.188;2022-09-01T03:15:28;12.80;99.90
51615;DHT22;37695;52.960;6.188;2022-09-01T03:17:54;12.80;99.90
51615;DHT22;37695;52.960;6.188;2022-09-01T03:20:23;13.20;99.90
51615;DHT22;37695;52.960;6.188;2022-09-01T03:22:49;12.80;99.90
51615;DHT22;37695;52.960;6.188;2022-09-01T03:25:17;12.80;99.90
51615;DHT22;37695;52.960;6.188;2022-09-01T03:27:44;12.90;99.90
51615;DHT22;37695;52.960;6.188;2022-09-01T03:30:10;12.80;99.90
51615;DHT22;37695;52.960;6.188;2022-09-01T03:32:36;12.80;99.90
51615;DHT22;37695;52.960;6.188;2022-09-01T03:35:02;12.80;99.90
51615;DHT22;37695;52.960;6.188;2022-09-01T03:37:28;12.80;99.90
51615;DHT22;37695;52.960;6.188;2022-09-01T03:39:53;12.80;99.90
51615;DHT22;37695;52.960;6.188;2022-09-01T03:42:19;12.70;99.90
51615;DHT22;37695;52.960;6.188;2022-09-01T03:44:47;12.80;99.90
51615;DHT22;37695;52.960;6.188;2022-09-01T03:47:14;12.80;99.90
51615;DHT22;37695;52.960;6.188;2022-09-01T03:49:39;12.70;99.90
51615;DHT22;37695;52.960;6.188;2022-09-01T03:52:08;12.70;99.90
51615;DHT22;37695;52.960;6.188;2022-09-01T03:54:36;12.70;99.90
51615;DHT22;37695;52.960;6.188;2022-09-01T03:57:02;12.70;99.90
51615;DHT22;37695;52.960;6.188;2022-09-01T03:59:31;12.70;99.90
51615;DHT22;37695;52.960;6.188;2022-09-01T04:01:58;12.70;99.90
51615;DHT22;37695;52.960;6.188;2022-09-01T04:04:25;12.70;99.90
51615;DHT22;37695;52.960;6.188;2022-09-01T04:06:51;12.80;99.90
51615;DHT22;37695;52.960;6.188;2022-09-01T04:09:16;12.60;99.90
51615;DHT22;37695;52.960;6.188;2022-09-01T04:11:43;12.60;99.90
51615;DHT22;37695;52.960;6.188;2022-09-01T04:14:11;12.60;99.90
51615;DHT22;37695;52.960;6.188;2022-09-01T04:16:37;12.60;99.90
51615;DHT22;37695;52.960;6.188;2022-09-01T04:19:24;12.50;99.90
51615;DHT22;37695;52.960;6.188;2022-09-01T04:21:56;12.50;99.90
51615;DHT22;37695;52.960;6.188;2022-09-01T04:24:24;12.50;99.90
51615;DHT22;37695;52.960;6.188;2022-09-01T04:26:54;12.50;99.90
51615;DHT22;37695;52.960;6.188;2022-09-01T04:29:21;12.50;99.90
51615;DHT22;37695;52.960;6.188;2022-09-01T04:32:03;12.50;99.90
51615;DHT22;37695;52.960;6.188;2022-09-01T04:34:31;12.50;99.90
51615;DHT22;37695;52.960;6.188;2022-09-01T04:37:14;12.50;99.90
51615;DHT22;37695;52.960;6.188;2022-09-01T04:39:51;12.50;99.90
51615;DHT22;37695;52.960;6.188;2022-09-01T04:42:18;12.40;99.90
51615;DHT22;37695;52.960;6.188;2022-09-01T04:44:51;12.40;99.90
51615;DHT22;37695;52.960;6.188;2022-09-01T04:47:18;12.40;99.90
51615;DHT22;37695;52.960;6.188;2022-09-01T04:49:45;12.40;99.90
51615;DHT22;37695;52.960;6.188;2022-09-01T04:52:12;12.40;99.90
51615;DHT22;37695;52.960;6.188;2022-09-01T04:54:38;12.40;99.90
51615;DHT22;37695;52.960;6.188;2022-09-01T04:57:04;12.40;99.90
51615;DHT22;37695;52.960;6.188;2022-09-01T04:59:31;12.40;99.90
51615;DHT22;37695;52.960;6.188;2022-09-01T05:01:58;12.40;99.90
51615;DHT22;37695;52.960;6.188;2022-09-01T05:04:27;12.40;99.90
51615;DHT22;37695;52.960;6.188;2022-09-01T05:06:55;12.40;99.90
51615;DHT22;37695;52.960;6.188;2022-09-01T05:09:24;12.40;99.90
51615;DHT22;37695;52.960;6.188;2022-09-01T05:11:51;12.40;99.90
51615;DHT22;37695;52.960;6.188;2022-09-01T05:14:17;12.40;99.90
51615;DHT22;37695;52.960;6.188;2022-09-01T05:16:46;12.40;99.90
51615;DHT22;37695;52.960;6.188;2022-09-01T05:19:13;12.40;99.90
51615;DHT22;37695;52.960;6.188;2022-09-01T05:21:41;12.40;99.90
51615;DHT22;37695;52.960;6.188;2022-09-01T05:24:11;12.40;99.90
51615;DHT22;37695;52.960;6.188;2022-09-01T05:26:37;12.50;99.90
51615;DHT22;37695;52.960;6.188;2022-09-01T05:29:06;12.40;99.90
51615;DHT22;37695;52.960;6.188;2022-09-01T05:31:39;12.50;99.90
51615;DHT22;37695;52.960;6.188;2022-09-01T18:00:08;19.90;91.50
51615;DHT22;37695;52.960;6.188;2022-09-01T18:05:10;19.80;91.50
51615;DHT22;37695;52.960;6.188;2022-09-01T18:10:43;19.60;91.20
51615;DHT22;37695;52.960;6.188;2022-09-01T18:13:25;19.50;92.10
51615;DHT22;37695;52.960;6.188;2022-09-01T18:15:54;19.40;92.80
51615;DHT22;37695;52.960;6.188;2022-09-01T18:18:31;19.30;93.20
51615;DHT22;37695;52.960;6.188;2022-09-01T18:21:08;19.20;93.50
51615;DHT22;37695;52.960;6.188;2022-09-01T18:23:41;19.10;93.60
51615;DHT22;37695;52.960;6.188;2022-09-01T18:26:28;19.10;94.00
51615;DHT22;37695;52.960;6.188;2022-09-01T18:29:00;18.90;94.60
51615;DHT22;37695;52.960;6.188;2022-09-01T18:36:50;18.60;96.40
51615;DHT22;37695;52.960;6.188;2022-09-01T18:47:11;18.30;96.70
51615;DHT22;37695;52.960;6.188;2022-09-01T18:50:19;18.30;97.40
51615;DHT22;37695;52.960;6.188;2022-09-01T18:58:35;18.10;99.20
51615;DHT22;37695;52.960;6.188;2022-09-01T19:04:19;17.90;98.60
51615;DHT22;37695;52.960;6.188;2022-09-01T19:06:58;17.80;99.00
51615;DHT22;37695;52.960;6.188;2022-09-01T19:09:48;17.70;98.30
51615;DHT22;37695;52.960;6.188;2022-09-01T19:17:34;17.60;98.10
51615;DHT22;37695;52.960;6.188;2022-09-01T19:20:11;17.60;98.60
51615;DHT22;37695;52.960;6.188;2022-09-01T19:25:40;17.40;98.80
51615;DHT22;37695;52.960;6.188;2022-09-01T19:31:14;17.30;99.10
51615;DHT22;37695;52.960;6.188;2022-09-01T19:34:05;17.50;99.10
51615;DHT22;37695;52.960;6.188;2022-09-01T19:36:41;17.20;99.90
51615;DHT22;37695;52.960;6.188;2022-09-01T19:39:11;17.10;99.90
51615;DHT22;37695;52.960;6.188;2022-09-01T19:47:24;17.00;99.90
51615;DHT22;37695;52.960;6.188;2022-09-01T19:53:08;16.90;99.70
51615;DHT22;37695;52.960;6.188;2022-09-01T19:55:52;16.80;99.80
51615;DHT22;37695;52.960;6.188;2022-09-01T20:01:00;16.70;99.70
51615;DHT22;37695;52.960;6.188;2022-09-01T20:03:38;16.70;99.80
51615;DHT22;37695;52.960;6.188;2022-09-01T20:06:12;16.60;99.90
51615;DHT22;37695;52.960;6.188;2022-09-01T20:08:50;16.60;99.90
51615;DHT22;37695;52.960;6.188;2022-09-01T20:11:30;16.60;99.90
51615;DHT22;37695;52.960;6.188;2022-09-01T20:14:30;16.60;99.90
51615;DHT22;37695;52.960;6.188;2022-09-01T20:17:04;16.50;99.90
51615;DHT22;37695;52.960;6.188;2022-09-01T20:19:54;16.50;99.90
51615;DHT22;37695;52.960;6.188;2022-09-01T20:25:31;16.50;99.90
51615;DHT22;37695;52.960;6.188;2022-09-01T20:30:47;16.40;99.90
51615;DHT22;37695;52.960;6.188;2022-09-01T20:33:32;16.40;99.90
51615;DHT22;37695;52.960;6.188;2022-09-01T20:36:05;16.40;99.90
51615;DHT22;37695;52.960;6.188;2022-09-01T20:41:32;16.40;99.90
51615;DHT22;37695;52.960;6.188;2022-09-01T20:44:02;16.30;99.90
51615;DHT22;37695;52.960;6.188;2022-09-01T20:46:31;16.30;99.90
51615;DHT22;37695;52.960;6.188;2022-09-01T20:48:57;16.30;99.90
51615;DHT22;37695;52.960;6.188;2022-09-01T20:51:37;16.30;99.90
51615;DHT22;37695;52.960;6.188;2022-09-01T20:59:55;16.20;99.90
51615;DHT22;37695;52.960;6.188;2022-09-01T21:08:37;16.10;99.90
51615;DHT22;37695;52.960;6.188;2022-09-01T21:17:12;16.00;99.90
51615;DHT22;37695;52.960;6.188;2022-09-01T21:19:46;15.90;99.90
51615;DHT22;37695;52.960;6.188;2022-09-01T21:22:15;15.90;99.90
51615;DHT22;37695;52.960;6.188;2022-09-01T21:24:41;15.90;99.90
51615;DHT22;37695;52.960;6.188;2022-09-01T21:27:24;15.90;99.90
51615;DHT22;37695;52.960;6.188;2022-09-01T21:30:09;15.80;99.90
51615;DHT22;37695;52.960;6.188;2022-09-01T21:32:36;15.80;99.90
51615;DHT22;37695;52.960;6.188;2022-09-01T21:35:04;15.80;99.90
51615;DHT22;37695;52.960;6.188;2022-09-01T21:37:30;15.80;99.90
51615;DHT22;37695;52.960;6.188;2022-09-01T21:39:55;15.80;99.90
51615;DHT22;37695;52.960;6.188;2022-09-01T21:42:32;15.70;99.90
51615;DHT22;37695;52.960;6.188;2022-09-01T21:44:59;15.70;99.90
51615;DHT22;37695;52.960;6.188;2022-09-01T21:47:26;15.70;99.90
51615;DHT22;37695;52.960;6.188;2022-09-01T21:49:53;15.70;99.90
51615;DHT22;37695;52.960;6.188;2022-09-01T21:52:19;15.70;99.90
51615;DHT22;37695;52.960;6.188;2022-09-01T21:54:44;15.60;99.90
51615;DHT22;37695;52.960;6.188;2022-09-01T21:57:10;15.60;99.90
51615;DHT22;37695;52.960;6.188;2022-09-01T21:59:35;15.60;99.90
51615;DHT22;37695;52.960;6.188;2022-09-01T22:02:01;15.60;99.90
51615;DHT22;37695;52.960;6.188;2022-09-01T22:04:27;15.60;99.90
51615;DHT22;37695;52.960;6.188;2022-09-01T22:06:53;15.60;99.90
51615;DHT22;37695;52.960;6.188;2022-09-01T22:09:19;15.50;99.90
51615;DHT22;37695;52.960;6.188;2022-09-01T22:11:46;15.50;99.90
51615;DHT22;37695;52.960;6.188;2022-09-01T22:14:12;15.50;99.90
51615;DHT22;37695;52.960;6.188;2022-09-01T22:16:37;15.40;99.90
51615;DHT22;37695;52.960;6.188;2022-09-01T22:19:04;15.40;99.90
51615;DHT22;37695;52.960;6.188;2022-09-01T22:21:30;15.40;99.90
51615;DHT22;37695;52.960;6.188;2022-09-01T22:23:56;15.40;99.90
51615;DHT22;37695;52.960;6.188;2022-09-01T22:26:25;15.30;99.90
51615;DHT22;37695;52.960;6.188;2022-09-01T22:28:54;15.30;99.90
51615;DHT22;37695;52.960;6.188;2022-09-01T22:31:22;15.30;99.90
51615;DHT22;37695;52.960;6.188;2022-09-01T22:33:48;15.30;99.90
51615;DHT22;37695;52.960;6.188;2022-09-01T22:36:29;15.20;99.90
51615;DHT22;37695;52.960;6.188;2022-09-01T22:38:55;15.20;99.90
51615;DHT22;37695;52.960;6.188;2022-09-01T22:41:23;15.20;99.90
51615;DHT22;37695;52.960;6.188;2022-09-01T22:43:50;15.20;99.90
51615;DHT22;37695;52.960;6.188;2022-09-01T22:46:17;15.20;99.90
51615;DHT22;37695;52.960;6.188;2022-09-01T22:48:43;15.20;99.90
51615;DHT22;37695;52.960;6.188;2022-09-01T22:51:10;15.20;99.90
51615;DHT22;37695;52.960;6.188;2022-09-01T22:53:37;15.10;99.90
51615;DHT22;37695;52.960;6.188;2022-09-01T22:56:16;15.10;99.90
51615;DHT22;37695;52.960;6.188;2022-09-01T22:58:45;15.10;99.90
51615;DHT22;37695;52.960;6.188;2022-09-01T23:01:14;15.10;99.90
51615;DHT22;37695;52.960;6.188;2022-09-01T23:03:41;15.00;99.90
51615;DHT22;37695;52.960;6.188;2022-09-01T23:06:11;15.00;99.90
51615;DHT22;37695;52.960;6.188;2022-09-01T23:08:37;15.00;99.90
51615;DHT22;37695;52.960;6.188;2022-09-01T23:11:04;15.00;99.90
51615;DHT22;37695;52.960;6.188;2022-09-01T23:13:30;14.90;99.90
51615;DHT22;37695;52.960;6.188;2022-09-01T23:15:57;14.90;99.90
51615;DHT22;37695;52.960;6.188;2022-09-01T23:18:25;14.90;99.90
51615;DHT22;37695;52.960;6.188;2022-09-01T23:20:52;14.90;99.90
51615;DHT22;37695;52.960;6.188;2022-09-01T23:23:18;14.90;99.90
51615;DHT22;37695;52.960;6.188;2022-09-01T23:25:44;14.90;99.90
51615;DHT22;37695;52.960;6.188;2022-09-01T23:28:11;14.90;99.90
51615;DHT22;37695;52.960;6.188;2022-09-01T23:30:40;14.80;99.90
51615;DHT22;37695;52.960;6.188;2022-09-01T23:33:07;14.80;99.90
51615;DHT22;37695;52.960;6.188;2022-09-01T23:35:33;14.80;99.90
51615;DHT22;37695;52.960;6.188;2022-09-01T23:37:59;14.70;99.90
51615;DHT22;37695;52.960;6.188;2022-09-01T23:40:24;14.70;99.90
51615;DHT22;37695;52.960;6.188;2022-09-01T23:42:50;14.70;99.90
51615;DHT22;37695;52.960;6.188;2022-09-01T23:45:16;14.70;99.90
51615;DHT22;37695;52.960;6.188;2022-09-01T23:47:41;14.70;99.90
51615;DHT22;37695;52.960;6.188;2022-09-01T23:50:07;14.60;99.90
51615;DHT22;37695;52.960;6.188;2022-09-01T23:52:33;14.60;99.90
51615;DHT22;37695;52.960;6.188;2022-09-01T23:54:59;14.60;99.90
51615;DHT22;37695;52.960;6.188;2022-09-01T23:57:24;14.50;99.90
51615;DHT22;37695;52.960;6.188;2022-09-01T23:59:50;14.50;99.90
